Time;durP1;ratioP1;P1;durP2;ratioP2;P2;SDS_P1;SDS_P2;PMS_P1;PMS_P2;Temp;Humidity;BMP_temperature;BMP_pressure;BME280_temperature;BME280_humidity;BME280_pressure;Samples;Min_cycle;Max_cycle;Signal;HPM_P1;HPM_P2
2022/10/16 00:00:25;;;;;;;0.00;0.00;;;;;;;;;;1740090;28;20235;-72
2022/10/16 00:01:19;;;;;;;0.00;0.00;;;;;;;;;;1739551;28;20206;-71
2022/10/16 00:02:10;;;;;;;0.00;0.00;;;;;;;;;;1739312;28;20218;-71
2022/10/16 00:03:04;;;;;;;0.00;0.00;;;;;;;;;;1739435;28;20256;-71
2022/10/16 00:03:55;;;;;;;0.00;0.00;;;;;;;;;;1739636;28;20636;-71
2022/10/16 00:04:47;;;;;;;0.00;0.00;;;;;;;;;;1740326;28;20207;-71
2022/10/16 00:05:39;;;;;;;0.00;0.00;;;;;;;;;;1746581;28;20336;-71
2022/10/16 00:06:32;;;;;;;0.00;0.00;;;;;;;;;;1746378;28;20809;-71
2022/10/16 00:07:23;;;;;;;0.00;0.00;;;;;;;;;;1746245;28;20306;-70
2022/10/16 00:08:15;;;;;;;0.00;0.00;;;;;;;;;;1746394;28;20230;-70
2022/10/16 00:09:07;;;;;;;0.00;0.00;;;;;;;;;;1746579;28;20249;-71
2022/10/16 00:09:59;;;;;;;0.00;0.00;;;;;;;;;;1746303;28;20283;-71
2022/10/16 00:10:50;;;;;;;0.00;0.00;;;;;;;;;;1746422;28;20256;-71
2022/10/16 00:11:42;;;;;;;0.00;0.00;;;;;;;;;;1746184;28;20701;-71
2022/10/16 00:12:33;;;;;;;0.00;0.00;;;;;;;;;;1746395;28;20260;-72
2022/10/16 00:13:24;;;;;;;0.00;0.00;;;;;;;;;;1746379;28;20228;-72
2022/10/16 00:14:16;;;;;;;0.00;0.00;;;;;;;;;;1746361;28;20201;-72
2022/10/16 00:15:08;;;;;;;0.00;0.00;;;;;;;;;;1746639;28;20230;-72
2022/10/16 00:16:00;;;;;;;0.00;0.00;;;;;;;;;;1746160;28;20211;-71
2022/10/16 00:16:51;;;;;;;0.00;0.00;;;;;;;;;;1746111;28;20202;-71
2022/10/16 00:17:43;;;;;;;0.00;0.00;;;;;;;;;;1746602;28;20285;-71
2022/10/16 00:18:37;;;;;;;0.00;0.00;;;;;;;;;;1746190;28;20217;-71
2022/10/16 00:19:29;;;;;;;0.00;0.00;;;;;;;;;;1746299;28;20489;-71
2022/10/16 00:20:20;;;;;;;0.00;0.00;;;;;;;;;;1746448;28;20240;-71
2022/10/16 00:21:14;;;;;;;0.00;0.00;;;;;;;;;;1746355;28;20263;-72
2022/10/16 00:22:05;;;;;;;0.00;0.00;;;;;;;;;;1745462;28;20734;-72
2022/10/16 00:22:57;;;;;;;0.00;0.00;;;;;;;;;;1739385;28;20203;-72
2022/10/16 00:23:50;;;;;;;0.00;0.00;;;;;;;;;;1739467;28;20226;-72
2022/10/16 00:24:42;;;;;;;0.00;0.00;;;;;;;;;;1739213;28;20257;-72
2022/10/16 00:25:33;;;;;;;0.00;0.00;;;;;;;;;;1740019;28;20199;-72
2022/10/16 00:26:25;;;;;;;0.00;0.00;;;;;;;;;;1739268;28;20218;-72
2022/10/16 00:27:16;;;;;;;0.00;0.00;;;;;;;;;;1739030;28;20257;-72
2022/10/16 00:28:08;;;;;;;0.00;0.00;;;;;;;;;;1739041;28;20222;-72
2022/10/16 00:29:00;;;;;;;0.00;0.00;;;;;;;;;;1739599;28;20397;-72
2022/10/16 00:29:52;;;;;;;0.00;0.00;;;;;;;;;;1739459;28;20677;-72
2022/10/16 00:30:43;;;;;;;0.00;0.00;;;;;;;;;;1739572;28;20304;-72
2022/10/16 00:31:35;;;;;;;0.00;0.00;;;;;;;;;;1739351;28;20210;-71
2022/10/16 00:32:26;;;;;;;0.00;0.00;;;;;;;;;;1738958;28;20215;-71
2022/10/16 00:33:18;;;;;;;0.00;0.00;;;;;;;;;;1743253;28;20213;-71
2022/10/16 00:34:11;;;;;;;0.00;0.00;;;;;;;;;;1746488;28;20233;-71
2022/10/16 00:35:04;;;;;;;0.00;0.00;;;;;;;;;;1746388;28;20206;-71
2022/10/16 00:35:57;;;;;;;0.00;0.00;;;;;;;;;;1746500;28;20221;-72
2022/10/16 00:36:49;;;;;;;0.00;0.00;;;;;;;;;;1746006;28;20233;-72
2022/10/16 00:37:41;;;;;;;0.00;0.00;;;;;;;;;;1746499;28;20246;-72
2022/10/16 00:38:33;;;;;;;0.00;0.00;;;;;;;;;;1739460;28;20671;-72
2022/10/16 00:39:24;;;;;;;0.00;0.00;;;;;;;;;;1739627;28;20595;-72
2022/10/16 00:40:16;;;;;;;0.00;0.00;;;;;;;;;;1739654;28;20459;-72
2022/10/16 00:41:10;;;;;;;0.00;0.00;;;;;;;;;;1739420;28;20238;-71
2022/10/16 00:42:02;;;;;;;0.00;0.00;;;;;;;;;;1739119;28;20579;-71
2022/10/16 00:42:53;;;;;;;0.00;0.00;;;;;;;;;;1739009;28;20238;-71
2022/10/16 00:43:47;;;;;;;0.00;0.00;;;;;;;;;;1739283;28;20533;-71
2022/10/16 00:44:43;;;;;;;0.00;0.00;;;;;;;;;;1740608;28;20265;-71
2022/10/16 00:45:35;;;;;;;0.00;0.00;;;;;;;;;;1741143;28;20195;-71
2022/10/16 00:46:28;;;;;;;0.00;0.00;;;;;;;;;;1740543;28;20211;-72
2022/10/16 00:47:25;;;;;;;0.00;0.00;;;;;;;;;;1740770;28;20234;-72
2022/10/16 00:48:16;;;;;;;0.00;0.00;;;;;;;;;;1740596;28;20672;-72
2022/10/16 00:49:09;;;;;;;0.00;0.00;;;;;;;;;;1740661;28;20692;-72
2022/10/16 00:50:07;;;;;;;0.00;0.00;;;;;;;;;;1740196;28;20751;-72
2022/10/16 00:50:59;;;;;;;0.00;0.00;;;;;;;;;;1740845;28;20183;-71
2022/10/16 00:51:53;;;;;;;0.00;0.00;;;;;;;;;;1740030;28;20199;-71
2022/10/16 00:52:47;;;;;;;0.00;0.00;;;;;;;;;;1741243;28;20199;-71
2022/10/16 00:53:38;;;;;;;0.00;0.00;;;;;;;;;;1740665;28;20301;-71
2022/10/16 00:54:32;;;;;;;0.00;0.00;;;;;;;;;;1740798;28;20578;-71
2022/10/16 00:55:24;;;;;;;0.00;0.00;;;;;;;;;;1740205;28;20270;-71
2022/10/16 00:56:16;;;;;;;0.00;0.00;;;;;;;;;;1740801;28;20199;-72
2022/10/16 00:57:07;;;;;;;0.00;0.00;;;;;;;;;;1740533;28;20288;-72
2022/10/16 00:57:59;;;;;;;0.00;0.00;;;;;;;;;;1740302;28;20207;-72
2022/10/16 00:58:50;;;;;;;0.00;0.00;;;;;;;;;;1736935;28;20245;-71
2022/10/16 00:59:43;;;;;;;0.00;0.00;;;;;;;;;;1740256;28;20607;-72
2022/10/16 01:00:34;;;;;;;0.00;0.00;;;;;;;;;;1740450;28;20555;-72
2022/10/16 01:01:26;;;;;;;0.00;0.00;;;;;;;;;;1740357;28;20203;-72
2022/10/16 01:02:17;;;;;;;0.00;0.00;;;;;;;;;;1740249;28;20242;-72
2022/10/16 01:03:23;;;;;;;0.00;0.00;;;;;;;;;;1740355;28;20264;-72
2022/10/16 01:04:14;;;;;;;0.00;0.00;;;;;;;;;;1740398;28;20242;-72
2022/10/16 01:05:09;;;;;;;0.00;0.00;;;;;;;;;;1740953;28;20212;-72
2022/10/16 01:06:10;;;;;;;0.00;0.00;;;;;;;;;;1740309;28;20203;-72
2022/10/16 01:07:07;;;;;;;0.00;0.00;;;;;;;;;;1739603;28;20202;-72
2022/10/16 01:08:04;;;;;;;0.00;0.00;;;;;;;;;;1740459;28;20519;-72
2022/10/16 01:09:03;;;;;;;0.00;0.00;;;;;;;;;;1740801;28;20195;-72
2022/10/16 01:09:59;;;;;;;0.00;0.00;;;;;;;;;;1740364;28;20654;-72
2022/10/16 01:10:55;;;;;;;0.00;0.00;;;;;;;;;;1741042;28;20205;-72
2022/10/16 01:11:52;;;;;;;0.00;0.00;;;;;;;;;;1739728;28;20329;-71
2022/10/16 01:12:49;;;;;;;0.00;0.00;;;;;;;;;;1741026;28;20506;-70
2022/10/16 01:13:43;;;;;;;0.00;0.00;;;;;;;;;;1740678;28;20431;-70
2022/10/16 01:14:41;;;;;;;0.00;0.00;;;;;;;;;;1740618;28;20195;-71
2022/10/16 01:15:34;;;;;;;0.00;0.00;;;;;;;;;;1740777;28;20206;-71
2022/10/16 01:16:31;;;;;;;0.00;0.00;;;;;;;;;;1740293;28;20314;-72
2022/10/16 01:17:23;;;;;;;0.00;0.00;;;;;;;;;;1740322;28;20643;-72
2022/10/16 01:18:18;;;;;;;0.00;0.00;;;;;;;;;;1740381;28;20199;-72
2022/10/16 01:19:11;;;;;;;0.00;0.00;;;;;;;;;;1740682;28;20302;-72
2022/10/16 01:20:12;;;;;;;0.00;0.00;;;;;;;;;;1740410;28;20214;-72
2022/10/16 01:21:04;;;;;;;0.00;0.00;;;;;;;;;;1740766;28;20230;-72
2022/10/16 01:21:58;;;;;;;0.00;0.00;;;;;;;;;;1739749;28;20623;-72
2022/10/16 01:22:57;;;;;;;0.00;0.00;;;;;;;;;;1736949;28;20601;-72
2022/10/16 01:23:53;;;;;;;0.00;0.00;;;;;;;;;;1740507;28;20195;-72
2022/10/16 01:24:46;;;;;;;0.00;0.00;;;;;;;;;;1740381;28;20645;-72
2022/10/16 01:25:57;;;;;;;0.00;0.00;;;;;;;;;;1741025;28;20199;-72
2022/10/16 01:26:54;;;;;;;0.00;0.00;;;;;;;;;;1740265;28;20317;-71
2022/10/16 01:27:48;;;;;;;0.00;0.00;;;;;;;;;;1740648;28;20195;-71
2022/10/16 01:28:40;;;;;;;0.00;0.00;;;;;;;;;;1739580;28;20236;-71
2022/10/16 01:29:36;;;;;;;0.00;0.00;;;;;;;;;;1740685;28;20199;-71
2022/10/16 01:30:28;;;;;;;0.00;0.00;;;;;;;;;;1740591;28;20230;-71
2022/10/16 01:31:21;;;;;;;0.00;0.00;;;;;;;;;;1740509;28;20765;-71
2022/10/16 01:32:15;;;;;;;0.00;0.00;;;;;;;;;;1740316;28;20392;-71
2022/10/16 01:33:10;;;;;;;0.00;0.00;;;;;;;;;;1740385;28;20198;-71
2022/10/16 01:34:03;;;;;;;0.00;0.00;;;;;;;;;;1740073;28;20293;-71
2022/10/16 01:34:58;;;;;;;0.00;0.00;;;;;;;;;;1741976;28;20502;-71
2022/10/16 01:35:53;;;;;;;0.00;0.00;;;;;;;;;;1747717;28;20830;-71
2022/10/16 01:36:48;;;;;;;0.00;0.00;;;;;;;;;;1747063;28;20194;-72
2022/10/16 01:37:41;;;;;;;0.00;0.00;;;;;;;;;;1747567;28;20230;-72
2022/10/16 01:38:35;;;;;;;0.00;0.00;;;;;;;;;;1746814;28;20202;-72
2022/10/16 01:39:30;;;;;;;0.00;0.00;;;;;;;;;;1746948;28;20300;-72
2022/10/16 01:40:24;;;;;;;0.00;0.00;;;;;;;;;;1747611;28;20210;-72
2022/10/16 01:41:17;;;;;;;0.00;0.00;;;;;;;;;;1746950;28;20234;-72
2022/10/16 01:42:11;;;;;;;0.00;0.00;;;;;;;;;;1747031;28;21873;-72
2022/10/16 01:43:05;;;;;;;0.00;0.00;;;;;;;;;;1746973;28;20236;-72
2022/10/16 01:43:59;;;;;;;0.00;0.00;;;;;;;;;;1747290;28;20302;-72
2022/10/16 01:44:51;;;;;;;0.00;0.00;;;;;;;;;;1746709;28;20245;-72
2022/10/16 01:45:44;;;;;;;0.00;0.00;;;;;;;;;;1747581;28;20241;-72
2022/10/16 01:46:37;;;;;;;0.00;0.00;;;;;;;;;;1747146;28;20233;-72
2022/10/16 01:47:32;;;;;;;0.00;0.00;;;;;;;;;;1747211;28;20501;-71
2022/10/16 01:48:24;;;;;;;0.00;0.00;;;;;;;;;;1747157;28;20244;-72
2022/10/16 01:49:16;;;;;;;0.00;0.00;;;;;;;;;;1747223;28;20213;-72
2022/10/16 01:50:08;;;;;;;0.00;0.00;;;;;;;;;;1747296;28;20238;-72
2022/10/16 01:51:02;;;;;;;0.00;0.00;;;;;;;;;;1747037;28;20316;-72
2022/10/16 01:51:56;;;;;;;0.00;0.00;;;;;;;;;;1746748;28;20283;-72
2022/10/16 01:52:51;;;;;;;0.00;0.00;;;;;;;;;;1747365;28;20624;-72
2022/10/16 01:53:44;;;;;;;0.00;0.00;;;;;;;;;;1746785;28;20294;-72
2022/10/16 01:54:38;;;;;;;0.00;0.00;;;;;;;;;;1747125;28;20226;-72
2022/10/16 01:55:31;;;;;;;0.00;0.00;;;;;;;;;;1746491;28;20266;-72
2022/10/16 01:56:24;;;;;;;0.00;0.00;;;;;;;;;;1746476;28;20226;-71
2022/10/16 01:57:17;;;;;;;0.00;0.00;;;;;;;;;;1747103;28;20213;-71
2022/10/16 01:58:10;;;;;;;0.00;0.00;;;;;;;;;;1746902;28;20198;-71
2022/10/16 01:59:03;;;;;;;0.00;0.00;;;;;;;;;;1747112;28;20243;-71
2022/10/16 01:59:57;;;;;;;0.00;0.00;;;;;;;;;;1746649;28;20313;-70
2022/10/16 02:00:49;;;;;;;0.00;0.00;;;;;;;;;;1742197;28;20317;-71
2022/10/16 02:01:42;;;;;;;0.00;0.00;;;;;;;;;;1739439;28;20191;-71
2022/10/16 02:02:34;;;;;;;0.00;0.00;;;;;;;;;;1740111;28;20242;-71
2022/10/16 02:03:26;;;;;;;0.00;0.00;;;;;;;;;;1740038;28;20206;-70
2022/10/16 02:04:19;;;;;;;0.00;0.00;;;;;;;;;;1740045;28;20257;-71
2022/10/16 02:05:14;;;;;;;0.00;0.00;;;;;;;;;;1740235;28;20540;-71
2022/10/16 02:06:05;;;;;;;0.00;0.00;;;;;;;;;;1740112;28;20286;-70
2022/10/16 02:06:58;;;;;;;0.00;0.00;;;;;;;;;;1739743;28;20203;-71
2022/10/16 02:07:49;;;;;;;0.00;0.00;;;;;;;;;;1739612;28;20203;-71
2022/10/16 02:08:43;;;;;;;0.00;0.00;;;;;;;;;;1740281;28;20195;-71
2022/10/16 02:09:35;;;;;;;0.00;0.00;;;;;;;;;;1739980;28;20230;-71
2022/10/16 02:10:30;;;;;;;0.00;0.00;;;;;;;;;;1740528;28;20215;-70
2022/10/16 02:11:21;;;;;;;0.00;0.00;;;;;;;;;;1740213;28;20529;-72
2022/10/16 02:12:16;;;;;;;0.00;0.00;;;;;;;;;;1739958;28;20644;-72
2022/10/16 02:13:09;;;;;;;0.00;0.00;;;;;;;;;;1739613;28;20294;-72
2022/10/16 02:14:05;;;;;;;0.00;0.00;;;;;;;;;;1739999;28;20544;-72
2022/10/16 02:14:57;;;;;;;0.00;0.00;;;;;;;;;;1739920;28;20234;-72
2022/10/16 02:15:49;;;;;;;0.00;0.00;;;;;;;;;;1740336;28;20195;-72
2022/10/16 02:16:41;;;;;;;0.00;0.00;;;;;;;;;;1740086;28;20526;-72
2022/10/16 02:17:33;;;;;;;0.00;0.00;;;;;;;;;;1740257;28;20276;-72
2022/10/16 02:18:28;;;;;;;0.00;0.00;;;;;;;;;;1739301;28;20505;-72
2022/10/16 02:19:21;;;;;;;0.00;0.00;;;;;;;;;;1740454;28;20329;-72
2022/10/16 02:20:12;;;;;;;0.00;0.00;;;;;;;;;;1740459;28;20274;-72
2022/10/16 02:21:09;;;;;;;0.00;0.00;;;;;;;;;;1747259;28;20210;-71
2022/10/16 02:22:01;;;;;;;0.00;0.00;;;;;;;;;;1739266;28;20309;-71
2022/10/16 02:22:54;;;;;;;0.00;0.00;;;;;;;;;;1737031;28;20195;-70
2022/10/16 02:23:50;;;;;;;0.00;0.00;;;;;;;;;;1739591;28;20230;-71
2022/10/16 02:24:46;;;;;;;0.00;0.00;;;;;;;;;;1739781;28;20849;-71
2022/10/16 02:25:40;;;;;;;0.00;0.00;;;;;;;;;;1740486;28;20242;-71
2022/10/16 02:26:38;;;;;;;0.00;0.00;;;;;;;;;;1739770;28;20237;-70
2022/10/16 02:27:33;;;;;;;0.00;0.00;;;;;;;;;;1740072;28;20199;-71
2022/10/16 02:28:27;;;;;;;0.00;0.00;;;;;;;;;;1739744;28;20202;-71
2022/10/16 02:29:21;;;;;;;0.00;0.00;;;;;;;;;;1739767;28;20679;-71
2022/10/16 02:30:15;;;;;;;0.00;0.00;;;;;;;;;;1740052;28;20211;-71
2022/10/16 02:31:09;;;;;;;0.00;0.00;;;;;;;;;;1740354;28;20222;-70
2022/10/16 02:32:02;;;;;;;0.00;0.00;;;;;;;;;;1739829;28;20663;-71
2022/10/16 02:32:55;;;;;;;0.00;0.00;;;;;;;;;;1739787;28;20304;-71
2022/10/16 02:33:46;;;;;;;0.00;0.00;;;;;;;;;;1740054;28;20450;-70
2022/10/16 02:34:39;;;;;;;0.00;0.00;;;;;;;;;;1739605;28;20272;-70
2022/10/16 02:35:31;;;;;;;0.00;0.00;;;;;;;;;;1740218;28;20203;-71
2022/10/16 02:36:23;;;;;;;0.00;0.00;;;;;;;;;;1739950;28;20629;-71
2022/10/16 02:37:14;;;;;;;0.00;0.00;;;;;;;;;;1740047;28;20298;-72
2022/10/16 02:38:07;;;;;;;0.00;0.00;;;;;;;;;;1739928;28;20217;-72
2022/10/16 02:39:00;;;;;;;0.00;0.00;;;;;;;;;;1739844;28;20226;-72
2022/10/16 02:39:52;;;;;;;0.00;0.00;;;;;;;;;;1739734;28;20292;-71
2022/10/16 02:40:43;;;;;;;0.00;0.00;;;;;;;;;;1739902;28;20230;-72
2022/10/16 02:41:35;;;;;;;0.00;0.00;;;;;;;;;;1742957;28;20263;-72
2022/10/16 02:42:30;;;;;;;0.00;0.00;;;;;;;;;;1746622;28;20249;-72
2022/10/16 02:43:22;;;;;;;0.00;0.00;;;;;;;;;;1746605;28;20202;-72
2022/10/16 02:44:13;;;;;;;0.00;0.00;;;;;;;;;;1746889;28;20238;-72
2022/10/16 02:45:07;;;;;;;0.00;0.00;;;;;;;;;;1746926;28;20539;-72
2022/10/16 02:45:59;;;;;;;0.00;0.00;;;;;;;;;;1746687;28;20321;-71
2022/10/16 02:46:51;;;;;;;0.00;0.00;;;;;;;;;;1746654;28;20202;-70
2022/10/16 02:47:42;;;;;;;0.00;0.00;;;;;;;;;;1746915;28;20294;-70
2022/10/16 02:48:34;;;;;;;0.00;0.00;;;;;;;;;;1746563;28;20222;-71
2022/10/16 02:49:25;;;;;;;0.00;0.00;;;;;;;;;;1746878;28;20210;-70
2022/10/16 02:50:18;;;;;;;0.00;0.00;;;;;;;;;;1746998;28;20471;-70
2022/10/16 02:51:09;;;;;;;0.00;0.00;;;;;;;;;;1746444;28;20248;-71
2022/10/16 02:52:01;;;;;;;0.00;0.00;;;;;;;;;;1745941;28;20210;-72
2022/10/16 02:52:52;;;;;;;0.00;0.00;;;;;;;;;;1746863;28;20340;-72
2022/10/16 02:53:44;;;;;;;0.00;0.00;;;;;;;;;;1746555;28;20199;-71
2022/10/16 02:54:35;;;;;;;0.00;0.00;;;;;;;;;;1746758;28;20237;-72
2022/10/16 02:55:28;;;;;;;0.00;0.00;;;;;;;;;;1746669;28;20246;-72
2022/10/16 02:56:19;;;;;;;0.00;0.00;;;;;;;;;;1746809;28;20206;-72
2022/10/16 02:57:11;;;;;;;0.00;0.00;;;;;;;;;;1746229;28;20206;-71
2022/10/16 02:58:02;;;;;;;0.00;0.00;;;;;;;;;;1746412;28;20249;-72
2022/10/16 02:58:54;;;;;;;0.00;0.00;;;;;;;;;;1746991;28;20640;-72
2022/10/16 02:59:45;;;;;;;0.00;0.00;;;;;;;;;;1746307;28;20225;-72
2022/10/16 03:00:38;;;;;;;0.00;0.00;;;;;;;;;;1747167;28;20626;-72
2022/10/16 03:01:30;;;;;;;0.00;0.00;;;;;;;;;;1746455;28;20255;-71
2022/10/16 03:02:21;;;;;;;0.00;0.00;;;;;;;;;;1746204;28;20245;-71
2022/10/16 03:03:13;;;;;;;0.00;0.00;;;;;;;;;;1746322;28;20209;-71
2022/10/16 03:04:04;;;;;;;0.00;0.00;;;;;;;;;;1746416;28;20268;-71
2022/10/16 03:04:56;;;;;;;0.00;0.00;;;;;;;;;;1746593;28;20616;-71
2022/10/16 03:05:47;;;;;;;0.00;0.00;;;;;;;;;;1746860;28;20571;-71
2022/10/16 03:06:39;;;;;;;0.00;0.00;;;;;;;;;;1746379;28;20294;-70
2022/10/16 03:07:30;;;;;;;0.00;0.00;;;;;;;;;;1746239;28;20238;-71
2022/10/16 03:08:24;;;;;;;0.00;0.00;;;;;;;;;;1746112;28;20206;-71
2022/10/16 03:09:16;;;;;;;0.00;0.00;;;;;;;;;;1746895;28;20560;-70
2022/10/16 03:10:08;;;;;;;0.00;0.00;;;;;;;;;;1746737;28;20547;-72
2022/10/16 03:10:59;;;;;;;0.00;0.00;;;;;;;;;;1733282;28;20282;-72
2022/10/16 03:11:52;;;;;;;0.10;0.10;;;;;;;;;;1738010;28;20533;-72
2022/10/16 03:12:43;;;;;;;0.00;0.00;;;;;;;;;;1740077;28;20298;-72
2022/10/16 03:13:35;;;;;;;0.00;0.00;;;;;;;;;;1738882;28;20231;-72
2022/10/16 03:14:26;;;;;;;0.00;0.00;;;;;;;;;;1739926;28;20488;-71
2022/10/16 03:15:18;;;;;;;0.00;0.00;;;;;;;;;;1739837;28;20591;-71
2022/10/16 03:16:10;;;;;;;0.00;0.00;;;;;;;;;;1739505;28;20605;-71
2022/10/16 03:17:02;;;;;;;0.00;0.00;;;;;;;;;;1739712;28;20211;-71
2022/10/16 03:17:53;;;;;;;0.00;0.00;;;;;;;;;;1739508;28;20653;-71
2022/10/16 03:18:49;;;;;;;0.00;0.00;;;;;;;;;;1739652;28;20230;-71
2022/10/16 03:19:40;;;;;;;0.00;0.00;;;;;;;;;;1739502;28;20510;-71
2022/10/16 03:20:32;;;;;;;0.00;0.00;;;;;;;;;;1739696;28;20231;-70
2022/10/16 03:21:23;;;;;;;0.00;0.00;;;;;;;;;;1739530;28;20261;-70
2022/10/16 03:22:15;;;;;;;0.05;0.05;;;;;;;;;;1739384;28;20690;-70
2022/10/16 03:23:08;;;;;;;0.00;0.00;;;;;;;;;;1736567;28;20596;-70
2022/10/16 03:24:00;;;;;;;0.00;0.00;;;;;;;;;;1739858;28;20699;-70
2022/10/16 03:24:51;;;;;;;0.00;0.00;;;;;;;;;;1739058;28;20603;-70
2022/10/16 03:25:43;;;;;;;0.00;0.00;;;;;;;;;;1740069;28;20232;-71
2022/10/16 03:26:34;;;;;;;0.00;0.00;;;;;;;;;;1739438;28;20274;-70
2022/10/16 03:27:26;;;;;;;0.00;0.00;;;;;;;;;;1739818;28;20234;-70
2022/10/16 03:28:17;;;;;;;0.00;0.00;;;;;;;;;;1739363;28;20242;-70
2022/10/16 03:29:08;;;;;;;0.00;0.00;;;;;;;;;;1739778;28;20227;-70
2022/10/16 03:30:00;;;;;;;0.00;0.00;;;;;;;;;;1739373;28;20210;-70
2022/10/16 03:30:51;;;;;;;0.00;0.00;;;;;;;;;;1739838;28;20305;-70
2022/10/16 03:31:45;;;;;;;0.00;0.00;;;;;;;;;;1739631;28;20588;-71
2022/10/16 03:32:36;;;;;;;0.00;0.00;;;;;;;;;;1739542;28;20507;-71
2022/10/16 03:33:28;;;;;;;0.00;0.00;;;;;;;;;;1739585;28;20668;-71
2022/10/16 03:34:19;;;;;;;0.00;0.00;;;;;;;;;;1739652;28;20214;-72
2022/10/16 03:35:11;;;;;;;0.00;0.00;;;;;;;;;;1739582;28;20648;-71
2022/10/16 03:36:02;;;;;;;0.00;0.00;;;;;;;;;;1739452;28;20632;-71
2022/10/16 03:36:54;;;;;;;0.00;0.00;;;;;;;;;;1739201;28;20195;-71
2022/10/16 03:37:45;;;;;;;0.00;0.00;;;;;;;;;;1739740;28;20253;-71
2022/10/16 03:38:37;;;;;;;0.00;0.00;;;;;;;;;;1739270;28;20241;-71
2022/10/16 03:39:28;;;;;;;0.00;0.00;;;;;;;;;;1739837;28;20241;-71
2022/10/16 03:40:20;;;;;;;0.00;0.00;;;;;;;;;;1739579;28;20214;-71
2022/10/16 03:41:11;;;;;;;0.00;0.00;;;;;;;;;;1739052;28;20206;-71
2022/10/16 03:42:03;;;;;;;0.00;0.00;;;;;;;;;;1736881;28;20264;-71
2022/10/16 03:42:57;;;;;;;0.00;0.00;;;;;;;;;;1739551;28;20242;-71
2022/10/16 03:43:49;;;;;;;0.00;0.00;;;;;;;;;;1739613;28;20619;-71
2022/10/16 03:44:40;;;;;;;0.00;0.00;;;;;;;;;;1740861;28;20231;-72
2022/10/16 03:45:32;;;;;;;0.00;0.00;;;;;;;;;;1746969;28;20198;-72
2022/10/16 03:46:23;;;;;;;0.00;0.00;;;;;;;;;;1744416;28;20293;-72
2022/10/16 03:47:20;;;;;;;0.00;0.00;;;;;;;;;;1739407;28;20256;-72
2022/10/16 03:48:11;;;;;;;0.00;0.00;;;;;;;;;;1739953;28;20202;-71
2022/10/16 03:49:03;;;;;;;0.00;0.00;;;;;;;;;;1739779;28;20241;-71
2022/10/16 03:49:54;;;;;;;0.00;0.00;;;;;;;;;;1739462;28;20688;-71
2022/10/16 03:50:48;;;;;;;0.00;0.00;;;;;;;;;;1739861;28;20199;-72
2022/10/16 03:51:39;;;;;;;0.00;0.00;;;;;;;;;;1739672;28;20215;-72
2022/10/16 03:52:30;;;;;;;0.00;0.00;;;;;;;;;;1738874;28;20213;-72
2022/10/16 03:53:22;;;;;;;0.00;0.00;;;;;;;;;;1742065;28;20198;-71
2022/10/16 03:54:13;;;;;;;0.00;0.00;;;;;;;;;;1746527;28;20636;-71
2022/10/16 03:55:05;;;;;;;0.00;0.00;;;;;;;;;;1746612;28;20315;-72
2022/10/16 03:55:56;;;;;;;0.00;0.00;;;;;;;;;;1746745;28;20506;-70
2022/10/16 03:56:48;;;;;;;0.00;0.00;;;;;;;;;;1746339;28;20194;-70
2022/10/16 03:57:39;;;;;;;0.00;0.00;;;;;;;;;;1739333;28;20245;-71
2022/10/16 03:58:31;;;;;;;0.00;0.00;;;;;;;;;;1739175;28;20213;-70
2022/10/16 03:59:23;;;;;;;0.00;0.00;;;;;;;;;;1739787;28;20249;-70
2022/10/16 04:00:15;;;;;;;0.00;0.00;;;;;;;;;;1743944;28;20199;-70
2022/10/16 04:01:06;;;;;;;0.00;0.00;;;;;;;;;;1746527;28;20234;-70
2022/10/16 04:01:58;;;;;;;0.00;0.00;;;;;;;;;;1744374;28;20212;-70
2022/10/16 04:02:50;;;;;;;0.00;0.00;;;;;;;;;;1746531;28;20199;-70
2022/10/16 04:03:42;;;;;;;0.00;0.00;;;;;;;;;;1746062;28;20198;-70
2022/10/16 04:04:33;;;;;;;0.00;0.00;;;;;;;;;;1746497;28;20662;-70
2022/10/16 04:05:25;;;;;;;0.00;0.00;;;;;;;;;;1747135;28;20202;-70
2022/10/16 04:06:17;;;;;;;0.00;0.00;;;;;;;;;;1747190;28;20251;-71
2022/10/16 04:07:09;;;;;;;0.00;0.00;;;;;;;;;;1747431;28;20604;-72
2022/10/16 04:08:00;;;;;;;0.00;0.00;;;;;;;;;;1746868;28;20628;-71
2022/10/16 04:08:52;;;;;;;0.00;0.00;;;;;;;;;;1740369;28;20303;-71
2022/10/16 04:09:43;;;;;;;0.00;0.00;;;;;;;;;;1740019;28;20203;-71
2022/10/16 04:10:35;;;;;;;0.00;0.00;;;;;;;;;;1740512;28;20210;-71
2022/10/16 04:11:26;;;;;;;0.00;0.00;;;;;;;;;;1739932;28;20261;-71
2022/10/16 04:12:18;;;;;;;0.00;0.00;;;;;;;;;;1739901;28;20202;-71
2022/10/16 04:13:09;;;;;;;0.00;0.00;;;;;;;;;;1739692;28;20651;-71
2022/10/16 04:14:01;;;;;;;0.00;0.00;;;;;;;;;;1739662;28;20214;-72
2022/10/16 04:14:52;;;;;;;0.00;0.00;;;;;;;;;;1742057;28;20264;-71
2022/10/16 04:15:46;;;;;;;0.00;0.00;;;;;;;;;;1746805;28;20505;-72
2022/10/16 04:16:37;;;;;;;0.00;0.00;;;;;;;;;;1746463;28;20695;-71
2022/10/16 04:17:29;;;;;;;0.00;0.00;;;;;;;;;;1746759;28;20304;-70
2022/10/16 04:18:21;;;;;;;0.00;0.00;;;;;;;;;;1742496;28;20234;-70
2022/10/16 04:19:13;;;;;;;0.00;0.00;;;;;;;;;;1740539;28;20215;-70
2022/10/16 04:20:05;;;;;;;0.00;0.00;;;;;;;;;;1740428;28;20234;-70
2022/10/16 04:20:57;;;;;;;0.00;0.00;;;;;;;;;;1740908;28;20568;-72
2022/10/16 04:21:48;;;;;;;0.00;0.00;;;;;;;;;;1745502;28;20703;-72
2022/10/16 04:22:40;;;;;;;0.00;0.00;;;;;;;;;;1744168;28;20190;-71
2022/10/16 04:23:31;;;;;;;0.00;0.00;;;;;;;;;;1744822;28;20211;-71
2022/10/16 04:24:23;;;;;;;0.00;0.00;;;;;;;;;;1747717;28;20198;-71
2022/10/16 04:25:15;;;;;;;0.00;0.00;;;;;;;;;;1747707;28;20248;-71
2022/10/16 04:26:07;;;;;;;0.00;0.00;;;;;;;;;;1747531;28;20214;-71
2022/10/16 04:26:58;;;;;;;0.00;0.00;;;;;;;;;;1747437;28;20589;-70
2022/10/16 04:27:50;;;;;;;0.00;0.00;;;;;;;;;;1747891;28;20637;-71
2022/10/16 04:28:41;;;;;;;0.00;0.00;;;;;;;;;;1742239;28;20289;-71
2022/10/16 04:29:33;;;;;;;0.00;0.00;;;;;;;;;;1740919;28;20206;-71
2022/10/16 04:30:24;;;;;;;0.00;0.00;;;;;;;;;;1740887;28;20290;-71
2022/10/16 04:31:16;;;;;;;0.00;0.00;;;;;;;;;;1740365;28;20514;-71
2022/10/16 04:32:09;;;;;;;0.00;0.00;;;;;;;;;;1740549;28;20261;-71
2022/10/16 04:33:01;;;;;;;0.00;0.00;;;;;;;;;;1740560;28;20207;-71
2022/10/16 04:33:53;;;;;;;0.00;0.00;;;;;;;;;;1740765;28;20246;-72
2022/10/16 04:34:45;;;;;;;0.00;0.00;;;;;;;;;;1740564;28;20285;-71
2022/10/16 04:35:36;;;;;;;0.00;0.00;;;;;;;;;;1748082;28;20326;-72
2022/10/16 04:36:28;;;;;;;0.00;0.00;;;;;;;;;;1746714;28;20237;-72
2022/10/16 04:37:19;;;;;;;0.00;0.00;;;;;;;;;;1740859;28;20249;-72
2022/10/16 04:38:12;;;;;;;0.00;0.00;;;;;;;;;;1740720;28;20207;-72
2022/10/16 04:39:03;;;;;;;0.00;0.00;;;;;;;;;;1740721;28;20206;-71
2022/10/16 04:39:55;;;;;;;0.00;0.00;;;;;;;;;;1743694;28;20241;-71
2022/10/16 04:40:46;;;;;;;0.00;0.00;;;;;;;;;;1747834;28;20240;-72
2022/10/16 04:41:38;;;;;;;0.00;0.00;;;;;;;;;;1747465;28;20230;-71
2022/10/16 04:42:29;;;;;;;0.00;0.00;;;;;;;;;;1746959;28;20237;-71
2022/10/16 04:43:21;;;;;;;0.00;0.00;;;;;;;;;;1743265;28;20210;-71
2022/10/16 04:44:12;;;;;;;0.00;0.00;;;;;;;;;;1740822;28;20321;-71
2022/10/16 04:45:05;;;;;;;0.00;0.00;;;;;;;;;;1740751;28;20436;-72
2022/10/16 04:45:56;;;;;;;0.00;0.00;;;;;;;;;;1740926;28;20592;-71
2022/10/16 04:46:48;;;;;;;0.00;0.00;;;;;;;;;;1740582;28;20203;-70
2022/10/16 04:47:39;;;;;;;0.00;0.00;;;;;;;;;;1740154;28;20297;-70
2022/10/16 04:48:31;;;;;;;0.00;0.00;;;;;;;;;;1740575;28;20210;-70
2022/10/16 04:49:23;;;;;;;0.00;0.00;;;;;;;;;;1733805;28;20246;-70
2022/10/16 04:50:16;;;;;;;0.00;0.00;;;;;;;;;;1744120;28;20241;-70
2022/10/16 04:51:07;;;;;;;0.00;0.00;;;;;;;;;;1747667;28;20293;-72
2022/10/16 04:51:59;;;;;;;0.00;0.00;;;;;;;;;;1747100;28;20719;-72
2022/10/16 04:52:50;;;;;;;0.00;0.00;;;;;;;;;;1747685;28;20741;-72
2022/10/16 04:53:42;;;;;;;0.00;0.00;;;;;;;;;;1746889;28;20194;-72
2022/10/16 04:54:33;;;;;;;0.00;0.00;;;;;;;;;;1747598;28;20233;-72
2022/10/16 04:55:25;;;;;;;0.00;0.00;;;;;;;;;;1747467;28;20229;-72
2022/10/16 04:56:16;;;;;;;0.00;0.00;;;;;;;;;;1747545;28;20656;-70
2022/10/16 04:57:08;;;;;;;0.00;0.00;;;;;;;;;;1747647;28;20827;-70
2022/10/16 04:57:59;;;;;;;0.00;0.00;;;;;;;;;;1746243;28;20529;-70
2022/10/16 04:58:51;;;;;;;0.00;0.00;;;;;;;;;;1743101;28;20257;-70
2022/10/16 04:59:42;;;;;;;0.00;0.00;;;;;;;;;;1747211;28;20639;-70
2022/10/16 05:00:34;;;;;;;0.00;0.00;;;;;;;;;;1747899;28;20569;-71
2022/10/16 05:01:25;;;;;;;0.00;0.00;;;;;;;;;;1747252;28;20746;-71
2022/10/16 05:02:17;;;;;;;0.00;0.00;;;;;;;;;;1747371;28;20226;-70
2022/10/16 05:03:08;;;;;;;0.00;0.00;;;;;;;;;;1747358;28;20206;-70
2022/10/16 05:04:01;;;;;;;0.00;0.00;;;;;;;;;;1747231;28;20274;-70
2022/10/16 05:04:53;;;;;;;0.00;0.00;;;;;;;;;;1747162;28;20202;-70
2022/10/16 05:05:46;;;;;;;0.00;0.00;;;;;;;;;;1747751;28;20195;-70
2022/10/16 05:06:38;;;;;;;0.00;0.00;;;;;;;;;;1747362;28;20229;-72
2022/10/16 05:07:30;;;;;;;0.00;0.00;;;;;;;;;;1747257;28;20229;-72
2022/10/16 05:08:21;;;;;;;0.00;0.00;;;;;;;;;;1745229;28;20240;-72
2022/10/16 05:09:13;;;;;;;0.00;0.00;;;;;;;;;;1740834;28;20210;-71
2022/10/16 05:10:05;;;;;;;0.00;0.00;;;;;;;;;;1744700;28;20252;-71
2022/10/16 05:10:57;;;;;;;0.00;0.00;;;;;;;;;;1747768;28;20339;-70
2022/10/16 05:11:48;;;;;;;0.00;0.00;;;;;;;;;;1742182;28;20361;-70
2022/10/16 05:12:40;;;;;;;0.00;0.00;;;;;;;;;;1740604;28;20210;-70
2022/10/16 05:13:31;;;;;;;0.00;0.00;;;;;;;;;;1740170;28;20261;-70
2022/10/16 05:14:23;;;;;;;0.00;0.00;;;;;;;;;;1740774;28;20203;-70
2022/10/16 05:15:14;;;;;;;0.00;0.00;;;;;;;;;;1746366;28;20255;-70